Time;durP1;ratioP1;P1;durP2;ratioP2;P2;SDS_P1;SDS_P2;PMS_P1;PMS_P2;Temp;Humidity;BMP_temperature;BMP_pressure;BME280_temperature;BME280_humidity;BME280_pressure;Samples;Min_cycle;Max_cycle;Signal;HPM_P1;HPM_P2
2022/12/16 00:01:13;;;;;;;52.88;26.98;;;;;;;-1.77;95.91;101026.22;6251046;22;20513;-75
2022/12/16 00:03:40;;;;;;;57.97;28.02;;;;;;;-1.76;95.96;101032.97;6250400;22;20454;-75
2022/12/16 00:06:08;;;;;;;49.08;27.05;;;;;;;-1.73;95.64;101030.41;6223890;22;20020;-75
2022/12/16 00:08:40;;;;;;;59.17;27.83;;;;;;;-1.73;95.59;101027.81;6224454;22;20028;-75
2022/12/16 00:11:08;;;;;;;52.83;27.08;;;;;;;-1.71;95.69;101030.81;6251269;22;20075;-75
2022/12/16 00:13:36;;;;;;;57.00;28.63;;;;;;;-1.74;95.23;101031.50;6251234;22;20024;-75
2022/12/16 00:16:05;;;;;;;56.25;28.50;;;;;;;-1.76;95.55;101031.09;6250626;22;20020;-77
2022/12/16 00:18:34;;;;;;;50.67;27.38;;;;;;;-1.77;95.52;101031.47;6250843;22;20021;-74
2022/12/16 00:21:01;;;;;;;47.75;26.55;;;;;;;-1.81;95.36;101034.00;6224568;22;20092;-74
2022/12/16 00:23:28;;;;;;;46.85;25.33;;;;;;;-1.84;95.26;101032.09;6224129;22;20489;-75
2022/12/16 00:25:55;;;;;;;47.50;25.40;;;;;;;-1.86;95.41;101034.28;6223869;22;20024;-75
2022/12/16 00:28:22;;;;;;;44.47;24.55;;;;;;;-1.88;95.52;101038.34;6223544;22;20017;-75
2022/12/16 00:30:51;;;;;;;47.25;24.30;;;;;;;-1.91;95.11;101036.44;6251414;22;20063;-75
2022/12/16 00:33:19;;;;;;;48.42;25.20;;;;;;;-1.96;95.51;101042.69;6250213;22;20021;-75
2022/12/16 00:35:47;;;;;;;50.22;24.88;;;;;;;-2.00;94.96;101044.50;6223965;22;20031;-75
2022/12/16 00:38:14;;;;;;;46.00;24.20;;;;;;;-2.05;95.28;101048.13;6251296;22;20016;-76
2022/12/16 00:40:42;;;;;;;44.63;22.92;;;;;;;-2.08;94.99;101048.84;6251716;22;20013;-78
2022/12/16 00:43:08;;;;;;;45.25;23.60;;;;;;;-2.08;95.08;101048.06;6224001;22;20465;-74
2022/12/16 00:45:36;;;;;;;47.75;23.10;;;;;;;-2.08;94.81;101046.22;6225114;22;20095;-75
2022/12/16 00:48:03;;;;;;;40.78;22.10;;;;;;;-2.09;94.58;101046.56;6250636;22;20017;-75
2022/12/16 00:50:30;;;;;;;52.47;24.58;;;;;;;-2.07;94.91;101045.13;6251231;22;20027;-75
2022/12/16 00:52:56;;;;;;;41.13;22.60;;;;;;;-2.06;94.59;101049.25;6250990;22;20114;-75
2022/12/16 00:55:24;;;;;;;48.28;22.67;;;;;;;-2.05;94.23;101057.81;6250793;22;20450;-74
2022/12/16 00:57:50;;;;;;;39.83;22.30;;;;;;;-2.04;93.99;101056.72;6250946;22;20152;-75
2022/12/16 01:00:17;;;;;;;41.67;22.52;;;;;;;-2.01;94.04;101056.03;6249988;22;20173;-75
2022/12/16 01:02:47;;;;;;;39.55;21.45;;;;;;;-1.96;93.98;101062.81;6224624;22;20468;-75
2022/12/16 01:05:19;;;;;;;44.88;22.88;;;;;;;-1.93;93.57;101059.50;6250726;22;20023;-75
2022/12/16 01:07:46;;;;;;;51.47;23.45;;;;;;;-1.98;93.19;101065.75;6251365;22;20469;-75
2022/12/16 01:10:14;;;;;;;43.17;23.02;;;;;;;-1.96;93.56;101073.25;6250684;22;20021;-75
2022/12/16 01:12:41;;;;;;;48.28;23.05;;;;;;;-1.93;93.08;101072.56;6251187;22;20083;-74
2022/12/16 01:15:08;;;;;;;37.22;22.20;;;;;;;-1.90;93.19;101074.47;6249935;22;20025;-75
2022/12/16 01:17:35;;;;;;;46.78;23.80;;;;;;;-1.87;92.79;101079.75;6223850;22;20020;-75
2022/12/16 01:20:06;;;;;;;44.25;23.23;;;;;;;-1.92;92.98;101080.03;6250969;22;20013;-75
2022/12/16 01:22:33;;;;;;;41.47;22.63;;;;;;;-1.92;93.18;101081.88;6251236;22;20017;-76
2022/12/16 01:25:00;;;;;;;41.53;22.63;;;;;;;-1.95;92.81;101085.94;6223932;22;20025;-76
2022/12/16 01:27:27;;;;;;;48.83;24.42;;;;;;;-2.00;93.42;101091.47;6223444;22;20020;-76
2022/12/16 01:29:54;;;;;;;41.55;23.00;;;;;;;-1.98;93.27;101096.31;6250550;22;20012;-76
2022/12/16 01:32:21;;;;;;;41.78;22.63;;;;;;;-1.95;93.75;101096.38;6250673;22;20016;-75
2022/12/16 01:34:52;;;;;;;44.80;23.30;;;;;;;-1.92;93.88;101100.91;6251003;22;20024;-75
2022/12/16 01:37:22;;;;;;;46.17;22.13;;;;;;;-1.90;93.92;101095.34;6250645;22;20473;-75
2022/12/16 01:39:49;;;;;;;39.30;21.77;;;;;;;-1.85;94.15;101102.91;6224172;22;20021;-75
2022/12/16 01:42:18;;;;;;;40.95;22.15;;;;;;;-1.81;94.19;101108.94;6250600;22;20091;-74
2022/12/16 01:44:47;;;;;;;37.70;21.05;;;;;;;-1.76;94.66;101113.88;6250485;22;20024;-75
2022/12/16 01:47:21;;;;;;;40.60;21.48;;;;;;;-1.65;94.48;101119.28;6223853;22;20023;-75
2022/12/16 01:49:53;;;;;;;38.97;21.15;;;;;;;-1.55;94.58;101118.69;6220644;22;20017;-75
2022/12/16 01:52:28;;;;;;;36.20;19.70;;;;;;;-1.52;95.09;101113.53;6248525;22;20021;-75
2022/12/16 01:55:05;;;;;;;37.55;22.00;;;;;;;-1.44;94.36;101120.41;6249777;22;20021;-75
2022/12/16 01:57:48;;;;;;;42.65;22.55;;;;;;;-1.41;94.66;101121.56;6250152;22;20067;-75
2022/12/16 02:00:16;;;;;;;37.80;20.15;;;;;;;-1.37;94.52;101115.28;6248558;22;20071;-74
2022/12/16 02:02:44;;;;;;;35.50;20.17;;;;;;;-1.33;94.61;101127.66;6250856;22;20461;-74
2022/12/16 02:05:21;;;;;;;27.13;15.27;;;;;;;-1.28;95.63;101116.94;6250530;22;20079;-74
2022/12/16 02:08:06;;;;;;;19.25;12.18;;;;;;;-1.14;97.21;101117.13;6250890;22;20095;-74
2022/12/16 02:10:42;;;;;;;25.20;11.98;;;;;;;-1.03;98.51;101124.03;6250824;22;20016;-74
2022/12/16 02:13:28;;;;;;;19.75;12.63;;;;;;;-0.90;99.66;101123.84;6249454;22;20023;-74
2022/12/16 02:16:15;;;;;;;21.70;11.90;;;;;;;-0.85;100.00;101126.91;6223690;22;20025;-75
2022/12/16 02:18:58;;;;;;;20.35;12.00;;;;;;;-0.79;100.00;101130.72;6223993;22;20017;-75
2022/12/16 02:21:38;;;;;;;21.38;12.20;;;;;;;-0.73;100.00;101128.56;6250449;22;20028;-74
2022/12/16 02:24:23;;;;;;;28.95;12.00;;;;;;;-0.68;100.00;101133.47;6250715;22;20071;-75
2022/12/16 02:27:16;;;;;;;17.08;10.80;;;;;;;-0.61;100.00;101135.44;6250898;22;20020;-74
2022/12/16 02:30:05;;;;;;;19.90;10.25;;;;;;;-0.56;100.00;101146.38;6250537;22;20020;-74
2022/12/16 02:32:43;;;;;;;12.30;9.55;;;;;;;-0.50;100.00;101149.44;6250917;22;20017;-74
2022/12/16 02:35:33;;;;;;;16.92;10.82;;;;;;;-0.47;100.00;101152.09;6250453;22;20013;-74
2022/12/16 02:38:24;;;;;;;14.45;10.15;;;;;;;-0.45;100.00;101157.72;6250602;22;20023;-74
2022/12/16 02:41:02;;;;;;;16.70;10.93;;;;;;;-0.42;100.00;101164.88;6250729;22;20020;-75
2022/12/16 02:43:29;;;;;;;18.30;10.35;;;;;;;-0.39;100.00;101158.16;6250031;22;20013;-75
2022/12/16 02:45:57;;;;;;;17.73;10.63;;;;;;;-0.36;100.00;101160.06;6250573;22;20084;-74
2022/12/16 02:48:24;;;;;;;16.33;10.82;;;;;;;-0.35;100.00;101164.94;6250291;22;20039;-74
2022/12/16 02:50:51;;;;;;;17.88;11.98;;;;;;;-0.32;100.00;101168.72;6250547;22;20017;-74
2022/12/16 02:53:19;;;;;;;18.50;12.40;;;;;;;-0.31;100.00;101170.22;6250664;22;20012;-74
2022/12/16 02:55:58;;;;;;;24.17;12.43;;;;;;;-0.29;100.00;101169.88;6250884;22;20009;-74
2022/12/16 02:58:35;;;;;;;21.13;13.43;;;;;;;-0.28;100.00;101176.59;6222417;22;20417;-74
2022/12/16 03:01:12;;;;;;;22.45;14.30;;;;;;;-0.28;100.00;101174.00;6223395;22;20436;-73
2022/12/16 03:04:01;;;;;;;25.45;15.07;;;;;;;-0.29;100.00;101175.84;6250559;22;20012;-73
2022/12/16 03:06:30;;;;;;;26.13;14.77;;;;;;;-0.29;100.00;101182.94;6250735;22;20016;-74
2022/12/16 03:09:00;;;;;;;28.80;15.98;;;;;;;-0.30;100.00;101181.44;6250308;22;20027;-74
2022/12/16 03:11:30;;;;;;;25.35;14.85;;;;;;;-0.30;100.00;101197.13;6249553;22;20020;-74
2022/12/16 03:13:58;;;;;;;28.02;16.20;;;;;;;-0.29;100.00;101198.66;6223584;22;20443;-73
2022/12/16 03:16:30;;;;;;;33.17;17.77;;;;;;;-0.27;100.00;101202.41;6249479;22;20048;-74
2022/12/16 03:19:06;;;;;;;27.15;17.27;;;;;;;-0.23;100.00;101213.69;6198486;22;20043;-73
2022/12/16 03:21:42;;;;;;;26.15;15.70;;;;;;;-0.22;100.00;101211.84;6250374;22;20048;-74
2022/12/16 03:24:12;;;;;;;29.92;17.23;;;;;;;-0.21;100.00;101218.56;6249822;22;20017;-74
2022/12/16 03:26:54;;;;;;;27.80;16.85;;;;;;;-0.21;100.00;101219.31;6249702;22;20075;-74
2022/12/16 03:29:33;;;;;;;35.35;18.27;;;;;;;-0.20;100.00;101228.69;6249545;22;20021;-74
2022/12/16 03:32:08;;;;;;;31.35;18.10;;;;;;;-0.17;100.00;101232.47;6250138;22;20457;-74
2022/12/16 03:34:41;;;;;;;29.90;17.40;;;;;;;-0.13;100.00;101238.50;6250138;22;20017;-74
2022/12/16 03:37:10;;;;;;;34.25;17.20;;;;;;;-0.12;100.00;101235.53;6249898;22;20076;-74
2022/12/16 03:39:45;;;;;;;27.90;16.90;;;;;;;-0.10;100.00;101237.78;6250061;22;20100;-74
2022/12/16 03:42:14;;;;;;;31.35;17.25;;;;;;;-0.09;100.00;101237.44;6249836;22;20033;-74
2022/12/16 03:44:42;;;;;;;33.13;17.30;;;;;;;-0.06;100.00;101241.22;6250187;22;20776;-73
2022/12/16 03:47:09;;;;;;;30.90;18.75;;;;;;;-0.03;100.00;101250.97;6223096;22;20017;-73
2022/12/16 03:49:36;;;;;;;32.58;18.23;;;;;;;-0.01;100.00;101254.00;6197771;22;20029;-74
2022/12/16 03:52:03;;;;;;;33.67;17.95;;;;;;;0.02;100.00;101261.13;6222644;22;20067;-74
2022/12/16 03:54:29;;;;;;;30.08;18.02;;;;;;;0.04;100.00;101264.13;6249848;22;20013;-74
2022/12/16 03:56:56;;;;;;;30.90;18.40;;;;;;;0.06;100.00;101266.41;6221557;22;20594;-74
2022/12/16 03:59:23;;;;;;;30.75;17.40;;;;;;;0.07;100.00;101263.44;6249333;22;20016;-74
2022/12/16 04:01:49;;;;;;;27.98;17.50;;;;;;;0.10;100.00;101261.97;6250068;22;20111;-74
2022/12/16 04:04:17;;;;;;;33.72;17.42;;;;;;;0.11;100.00;101264.22;6249745;22;20415;-74
2022/12/16 04:06:43;;;;;;;30.73;17.85;;;;;;;0.12;100.00;101270.22;6249938;22;20100;-74
2022/12/16 04:09:10;;;;;;;29.65;17.92;;;;;;;0.12;100.00;101270.97;6249098;22;20017;-74
2022/12/16 04:25:34;;;;;;;32.25;17.38;;;;;;;0.20;100.00;101277.06;6249154;22;20009;-74
2022/12/16 04:28:01;;;;;;;28.58;16.77;;;;;;;0.17;100.00;101277.78;6222824;22;20021;-74
2022/12/16 04:30:33;;;;;;;29.02;17.00;;;;;;;0.18;100.00;101279.28;6249558;22;20025;-74
